Time;durP1;ratioP1;P1;durP2;ratioP2;P2;SDS_P1;SDS_P2;PMS_P1;PMS_P2;Temp;Humidity;BMP_temperature;BMP_pressure;BME280_temperature;BME280_humidity;BME280_pressure;Samples;Min_cycle;Max_cycle;Signal;HPM_P1;HPM_P2
2022/04/27 00:00:44;;;;;;;5.08;2.98;;;;;;;9.73;87.31;99485.77;1751788;81;21022;-68
2022/04/27 00:03:12;;;;;;;5.15;2.45;;;;;;;9.69;86.94;99486.73;1749802;81;21057;-68
2022/04/27 00:05:40;;;;;;;4.15;2.90;;;;;;;9.64;87.21;99492.36;1750863;81;21014;-67
2022/04/27 00:08:11;;;;;;;5.10;2.47;;;;;;;9.67;87.58;99495.27;1746304;81;21093;-67
2022/04/27 00:10:42;;;;;;;3.98;2.90;;;;;;;9.71;87.79;99499.02;1751536;81;21139;-68
2022/04/27 00:13:16;;;;;;;5.80;3.10;;;;;;;9.77;87.83;99502.47;1747885;81;21115;-67
2022/04/27 00:15:47;;;;;;;3.25;2.75;;;;;;;9.83;87.68;99499.00;1750694;81;22383;-68
2022/04/27 00:18:16;;;;;;;8.05;4.08;;;;;;;9.88;87.71;99496.70;1749583;81;21066;-67
2022/04/27 00:20:45;;;;;;;7.12;3.10;;;;;;;9.91;87.68;99502.36;1728898;81;21069;-68
2022/04/27 00:23:11;;;;;;;6.22;3.27;;;;;;;9.94;87.65;99499.00;1748306;81;21035;-68
2022/04/27 00:25:40;;;;;;;5.25;3.02;;;;;;;9.93;87.49;99500.11;1738980;81;20993;-68
2022/04/27 00:28:08;;;;;;;4.25;2.92;;;;;;;9.93;87.03;99500.11;1729759;82;20995;-68
2022/04/27 00:30:36;;;;;;;8.68;3.27;;;;;;;9.94;87.16;99494.05;1734011;82;21346;-68
2022/04/27 00:33:04;;;;;;;4.87;3.42;;;;;;;9.95;87.05;99499.79;1766742;80;21040;-68
2022/04/27 00:35:32;;;;;;;5.67;3.83;;;;;;;9.94;86.91;99505.87;1766174;80;21099;-68
2022/04/27 00:37:59;;;;;;;8.50;3.90;;;;;;;9.93;86.76;99509.73;1754576;80;21452;-67
2022/04/27 00:40:31;;;;;;;9.38;4.15;;;;;;;9.91;86.61;99510.61;1759190;80;21031;-67
2022/04/27 00:43:03;;;;;;;6.22;4.25;;;;;;;9.88;86.36;99518.72;1759486;80;20974;-66
2022/04/27 00:45:29;;;;;;;6.83;4.33;;;;;;;9.82;86.07;99522.15;1745907;81;21489;-67
2022/04/27 00:47:58;;;;;;;4.45;3.55;;;;;;;9.75;86.28;99523.98;1767971;80;21244;-68
2022/04/27 00:50:28;;;;;;;7.75;3.85;;;;;;;9.71;86.38;99533.42;1759010;80;21057;-67
2022/04/27 00:52:55;;;;;;;6.28;3.20;;;;;;;9.68;86.54;99538.17;1759971;80;21065;-67
2022/04/27 00:55:31;;;;;;;4.92;3.12;;;;;;;9.66;86.59;99541.80;1765259;80;21006;-66
2022/04/27 00:57:59;;;;;;;4.22;3.20;;;;;;;9.62;86.60;99551.82;1772976;80;21474;-65
2022/04/27 01:00:30;;;;;;;5.45;3.10;;;;;;;9.59;86.88;99546.92;1741030;82;21459;-67
2022/04/27 01:02:58;;;;;;;4.47;3.00;;;;;;;9.59;86.93;99550.49;1733895;80;21094;-67
2022/04/27 01:05:29;;;;;;;4.45;2.75;;;;;;;9.58;87.22;99545.30;1765193;80;21110;-67
2022/04/27 01:08:00;;;;;;;6.72;2.87;;;;;;;9.58;87.32;99550.25;1759946;80;21030;-67
2022/04/27 01:10:30;;;;;;;7.22;3.12;;;;;;;9.59;87.30;99551.05;1734703;81;21023;-67
2022/04/27 01:13:00;;;;;;;4.95;3.20;;;;;;;9.59;87.27;99550.49;1758361;81;21102;-67
2022/04/27 01:15:33;;;;;;;2.92;2.62;;;;;;;9.58;87.20;99546.68;1762094;79;21050;-67
2022/04/27 01:18:00;;;;;;;3.52;2.98;;;;;;;9.58;87.03;99553.55;1743697;80;20994;-67
2022/04/27 01:20:45;;;;;;;3.27;2.95;;;;;;;9.54;87.16;99553.36;1769515;80;21425;-66
2022/04/27 01:23:15;;;;;;;4.03;2.85;;;;;;;9.53;87.17;99551.75;1762128;80;21056;-67
2022/04/27 01:25:54;;;;;;;7.22;2.60;;;;;;;9.49;87.03;99551.55;1749366;80;21102;-67
2022/04/27 01:28:24;;;;;;;5.12;2.92;;;;;;;9.46;87.05;99553.56;1755278;80;21467;-68
2022/04/27 01:31:03;;;;;;;6.40;3.02;;;;;;;9.44;86.93;99560.48;1754243;80;21022;-67
2022/04/27 01:33:34;;;;;;;3.80;2.58;;;;;;;9.40;87.21;99563.04;1738860;80;21073;-67
2022/04/27 01:36:02;;;;;;;8.28;3.35;;;;;;;9.40;87.31;99563.04;1721976;81;21488;-68
2022/04/27 01:38:40;;;;;;;4.60;3.30;;;;;;;9.40;87.33;99565.00;1749620;81;22089;-67
2022/04/27 01:41:10;;;;;;;6.42;3.90;;;;;;;9.38;87.30;99562.56;1749364;81;21054;-67
2022/04/27 01:43:38;;;;;;;7.97;3.08;;;;;;;9.37;87.46;99558.16;1760128;80;21440;-68
2022/04/27 01:46:05;;;;;;;5.78;3.25;;;;;;;9.36;87.49;99557.92;1755989;81;21105;-67
2022/04/27 01:48:33;;;;;;;5.40;3.22;;;;;;;9.37;87.67;99562.29;1761225;80;21514;-66
2022/04/27 01:51:02;;;;;;;9.53;3.27;;;;;;;9.38;87.60;99568.06;1756605;80;21021;-67
2022/04/27 01:56:23;;;;;;;5.22;3.25;;;;;;;9.38;87.63;99558.44;1715713;81;21028;-66
2022/04/27 01:58:52;;;;;;;3.95;2.87;;;;;;;9.40;87.50;99562.25;1721122;81;20971;-67
2022/04/27 02:01:21;;;;;;;3.10;2.67;;;;;;;9.38;87.50;99559.23;1769636;80;21458;-67
2022/04/27 02:03:51;;;;;;;4.45;2.87;;;;;;;9.37;87.54;99563.11;1742869;81;21182;-67
2022/04/27 02:06:21;;;;;;;5.33;3.60;;;;;;;9.38;87.59;99562.56;1737419;81;21011;-67
2022/04/27 02:08:49;;;;;;;5.05;2.98;;;;;;;9.33;87.31;99559.92;1739985;81;21090;-67
2022/04/27 02:11:24;;;;;;;4.67;3.37;;;;;;;9.31;87.47;99558.87;1741152;81;21042;-66
2022/04/27 02:13:54;;;;;;;10.50;4.20;;;;;;;9.31;87.47;99562.17;1741139;81;20999;-66
2022/04/27 02:16:23;;;;;;;5.25;3.25;;;;;;;9.29;87.43;99566.61;1738839;81;21882;-67
2022/04/27 02:18:50;;;;;;;5.55;3.20;;;;;;;9.28;87.48;99562.80;1741251;81;21062;-66
2022/04/27 02:21:22;;;;;;;5.78;3.40;;;;;;;9.25;87.38;99569.16;1743193;81;21133;-67
2022/04/27 02:23:50;;;;;;;4.20;2.77;;;;;;;9.24;87.34;99574.97;1742846;81;21093;-66
2022/04/27 02:26:18;;;;;;;5.67;3.47;;;;;;;9.22;87.63;99563.46;1738481;81;21047;-67
2022/04/27 02:28:47;;;;;;;5.00;3.10;;;;;;;9.24;87.73;99570.84;1738998;82;21010;-67
2022/04/27 02:31:15;;;;;;;7.05;2.80;;;;;;;9.25;87.54;99570.53;1762338;80;21444;-67
2022/04/27 02:33:49;;;;;;;3.77;3.15;;;;;;;9.24;87.51;99573.04;1753090;81;21017;-67
2022/04/27 02:36:18;;;;;;;5.60;2.60;;;;;;;9.23;87.57;99567.27;1758516;81;21035;-66
2022/04/27 02:38:48;;;;;;;3.67;3.15;;;;;;;9.23;87.46;99572.77;1750958;80;20999;-67
2022/04/27 02:41:15;;;;;;;3.72;3.00;;;;;;;9.22;87.46;99573.08;1754649;81;21139;-66
2022/04/27 02:43:44;;;;;;;4.58;3.12;;;;;;;9.21;87.64;99570.89;1752950;81;21014;-67
2022/04/27 02:46:15;;;;;;;4.00;2.67;;;;;;;9.21;87.53;99572.27;1751667;81;21101;-66
2022/04/27 02:54:01;;;;;;;4.85;3.50;;;;;;;9.14;87.18;99580.14;1749941;81;21739;-66
2022/04/27 02:56:29;;;;;;;3.22;2.67;;;;;;;9.11;87.10;99584.30;1754072;81;21072;-68
2022/04/27 02:58:58;;;;;;;4.53;3.10;;;;;;;9.08;86.95;99584.92;1732280;81;21014;-66
2022/04/27 03:01:27;;;;;;;8.10;3.67;;;;;;;9.05;86.90;99586.92;1751614;81;21478;-68
2022/04/27 03:03:55;;;;;;;3.58;2.90;;;;;;;9.05;87.02;99590.22;1754703;81;21006;-66
2022/04/27 03:06:22;;;;;;;4.95;3.45;;;;;;;9.03;86.96;99588.34;1750585;81;21221;-66
2022/04/27 03:08:51;;;;;;;5.80;3.65;;;;;;;9.01;86.96;99594.97;1751525;81;20994;-65
2022/04/27 03:11:21;;;;;;;4.28;3.17;;;;;;;8.98;86.83;99594.77;1749710;81;21030;-66
2022/04/27 03:13:55;;;;;;;5.70;2.98;;;;;;;8.95;86.79;99594.83;1749707;81;21034;-66
2022/04/27 03:16:24;;;;;;;9.90;3.67;;;;;;;8.93;86.75;99595.69;1731921;81;20994;-67
2022/04/27 03:18:54;;;;;;;6.40;3.62;;;;;;;8.92;86.97;99602.32;1729941;81;22434;-67
2022/04/27 03:21:22;;;;;;;6.20;4.10;;;;;;;8.91;86.87;99602.60;1749647;81;20974;-66
2022/04/27 03:23:49;;;;;;;4.72;3.33;;;;;;;8.90;86.91;99610.05;1753791;81;21046;-66
2022/04/27 03:26:16;;;;;;;5.70;4.35;;;;;;;8.89;86.89;99608.41;1753497;81;20989;-66
2022/04/27 03:28:47;;;;;;;10.15;4.50;;;;;;;8.87;86.78;99617.54;1764101;80;21038;-67
2022/04/27 03:31:15;;;;;;;4.75;4.03;;;;;;;8.85;86.87;99617.02;1733779;82;21151;-67
2022/04/27 03:33:44;;;;;;;10.78;4.62;;;;;;;8.83;86.94;99615.95;1760180;80;21479;-67
2022/04/27 03:36:12;;;;;;;6.03;4.10;;;;;;;8.82;86.92;99626.67;1758738;81;21005;-67
2022/04/27 03:38:43;;;;;;;5.35;4.22;;;;;;;8.80;86.83;99626.19;1715234;82;21055;-67
2022/04/27 03:41:12;;;;;;;7.00;4.72;;;;;;;8.80;86.86;99622.63;1765573;80;21037;-67
2022/04/27 03:43:44;;;;;;;5.85;4.20;;;;;;;8.80;86.97;99629.49;1763377;80;21149;-67
2022/04/27 03:46:11;;;;;;;5.92;4.55;;;;;;;8.80;86.76;99625.37;1764077;80;20945;-67
2022/04/27 03:48:41;;;;;;;6.15;4.90;;;;;;;8.77;86.52;99629.52;1738966;81;21499;-68
2022/04/27 03:51:09;;;;;;;6.03;4.70;;;;;;;8.74;86.80;99628.77;1767995;80;21531;-67
2022/04/27 03:53:36;;;;;;;6.30;4.72;;;;;;;8.75;86.97;99633.95;1766288;80;21520;-67
2022/04/27 03:56:06;;;;;;;7.10;5.22;;;;;;;8.78;87.16;99633.09;1732512;82;21005;-67
2022/04/27 03:58:35;;;;;;;6.55;4.42;;;;;;;8.80;86.94;99640.48;1731418;82;21088;-67
2022/04/27 04:01:03;;;;;;;8.65;4.90;;;;;;;8.82;86.85;99643.74;1760888;80;21046;-67
2022/04/27 04:03:31;;;;;;;5.62;4.50;;;;;;;8.85;86.81;99650.00;1764263;80;21445;-66
2022/04/27 04:06:01;;;;;;;7.50;4.78;;;;;;;8.87;86.77;99646.39;1733628;82;21059;-67
2022/04/27 04:08:33;;;;;;;6.97;4.20;;;;;;;8.91;86.80;99647.39;1742033;81;20984;-67
2022/04/27 04:11:01;;;;;;;8.38;4.50;;;;;;;8.96;86.75;99648.66;1740428;81;21499;-67
2022/04/27 04:13:31;;;;;;;5.05;4.33;;;;;;;8.97;86.05;99655.78;1733354;82;21504;-67
2022/04/27 04:16:07;;;;;;;4.90;3.77;;;;;;;8.86;86.16;99654.36;1736395;80;20988;-66
2022/04/27 04:18:41;;;;;;;6.45;4.15;;;;;;;8.86;86.34;99659.86;1760533;80;21010;-67
2022/04/27 04:21:10;;;;;;;5.33;4.53;;;;;;;8.82;86.12;99659.65;1754047;81;21877;-67
2022/04/27 04:23:39;;;;;;;5.83;3.95;;;;;;;8.88;86.84;99657.63;1758089;80;22233;-68
2022/04/27 04:28:57;;;;;;;7.72;4.87;;;;;;;9.11;86.80;99657.16;1743982;81;20998;-66
2022/04/27 04:31:28;;;;;;;9.40;5.62;;;;;;;9.23;86.72;99653.05;1742486;81;21070;-67
2022/04/27 04:34:17;;;;;;;7.00;4.53;;;;;;;9.31;86.29;99654.28;1741933;81;21242;-66
2022/04/27 04:36:44;;;;;;;8.15;4.75;;;;;;;9.30;85.58;99662.30;1741084;81;20998;-65
2022/04/27 04:39:13;;;;;;;5.33;3.75;;;;;;;9.28;85.65;99662.57;1739296;81;20992;-66
2022/04/27 04:41:42;;;;;;;4.95;3.92;;;;;;;9.34;85.72;99672.91;1745690;81;20987;-66
2022/04/27 04:44:09;;;;;;;4.17;3.40;;;;;;;9.31;85.23;99663.91;1769417;80;21167;-65
2022/04/27 04:46:42;;;;;;;6.97;3.60;;;;;;;9.31;84.66;99668.03;1749017;81;21166;-66
2022/04/27 04:49:10;;;;;;;3.65;2.90;;;;;;;9.34;85.22;99669.61;1747469;81;21136;-66
2022/04/27 04:51:39;;;;;;;4.67;3.65;;;;;;;9.49;85.40;99671.76;1748327;81;21026;-66
2022/04/27 04:54:11;;;;;;;6.87;3.10;;;;;;;9.54;84.37;99671.64;1688575;81;22468;-66
2022/04/27 04:56:42;;;;;;;3.95;3.22;;;;;;;9.58;84.30;99671.84;1749766;80;21053;-66
2022/04/27 04:59:20;;;;;;;3.20;2.90;;;;;;;9.67;84.59;99676.05;1727222;82;21116;-66
2022/04/27 05:02:06;;;;;;;5.22;3.75;;;;;;;9.84;84.75;99678.14;1754865;80;21030;-67
2022/04/27 05:04:41;;;;;;;5.33;3.52;;;;;;;10.00;83.88;99677.78;1751935;81;21006;-67
2022/04/27 05:07:11;;;;;;;7.12;3.70;;;;;;;10.09;83.47;99681.41;1746933;81;21489;-67
2022/04/27 05:09:57;;;;;;;5.25;3.55;;;;;;;10.22;83.26;99681.89;1750742;81;21479;-68
2022/04/27 05:12:39;;;;;;;5.87;4.15;;;;;;;10.35;83.19;99683.52;1771369;80;21129;-67
2022/04/27 05:15:16;;;;;;;4.90;3.35;;;;;;;10.55;83.28;99691.03;1751621;80;21114;-68
2022/04/27 05:17:46;;;;;;;4.60;2.98;;;;;;;10.70;82.61;99686.49;1748727;81;21046;-68
2022/04/27 05:20:16;;;;;;;4.55;2.80;;;;;;;10.88;81.96;99686.58;1751363;81;21066;-67
2022/04/27 05:22:47;;;;;;;4.08;2.87;;;;;;;11.01;81.16;99695.86;1754922;81;21014;-66
2022/04/27 05:25:18;;;;;;;4.17;3.05;;;;;;;11.10;80.09;99693.14;1744217;81;21514;-67
2022/04/27 05:27:46;;;;;;;4.17;2.95;;;;;;;11.15;79.67;99694.38;1741596;81;22061;-66
2022/04/27 05:33:24;;;;;;;4.53;2.98;;;;;;;11.38;78.62;99702.53;1720912;81;21512;-66
2022/04/27 05:36:03;;;;;;;6.08;3.37;;;;;;;11.43;77.55;99703.77;1744735;81;21050;-67
2022/04/27 05:38:36;;;;;;;5.40;4.62;;;;;;;11.46;77.21;99698.74;1746938;81;21063;-67
2022/04/27 05:41:23;;;;;;;7.47;4.30;;;;;;;11.53;77.94;99705.40;1749774;81;21057;-67
2022/04/27 05:44:09;;;;;;;6.25;3.45;;;;;;;11.71;78.64;99705.44;1740845;81;21100;-67
2022/04/27 05:47:01;;;;;;;6.28;3.40;;;;;;;11.91;77.69;99706.73;1731511;81;21009;-67
2022/04/27 05:49:33;;;;;;;5.70;3.30;;;;;;;12.08;76.59;99707.87;1747249;81;21209;-67
2022/04/27 05:52:05;;;;;;;4.53;3.10;;;;;;;12.19;75.91;99715.30;1717192;81;21145;-67
2022/04/27 05:57:37;;;;;;;4.70;2.77;;;;;;;12.34;75.48;99715.91;1624952;86;21607;-67
2022/04/27 06:00:23;;;;;;;4.00;2.80;;;;;;;12.41;74.06;99710.15;1596511;85;21050;-68
2022/04/27 06:02:59;;;;;;;3.98;2.72;;;;;;;12.37;73.42;99718.02;1650046;85;21597;-67
2022/04/27 06:05:30;;;;;;;5.50;3.10;;;;;;;12.38;72.85;99721.05;1651218;85;21928;-67
2022/04/27 06:07:58;;;;;;;8.30;3.80;;;;;;;12.43;73.64;99726.40;1639606;87;21614;-68
2022/04/27 06:10:25;;;;;;;4.37;3.20;;;;;;;12.44;71.44;99724.42;1653612;85;21007;-67
2022/04/27 06:12:54;;;;;;;6.78;3.65;;;;;;;12.47;72.35;99727.94;1660145;86;21073;-67
2022/04/27 06:15:42;;;;;;;3.90;3.17;;;;;;;12.60;72.39;99728.88;1594805;90;21066;-67
2022/04/27 06:18:11;;;;;;;4.15;3.58;;;;;;;12.68;71.75;99730.81;1587738;90;21812;-67
2022/04/27 06:20:41;;;;;;;3.80;3.47;;;;;;;12.79;70.91;99739.58;1618026;86;21083;-67
2022/04/27 06:23:13;;;;;;;5.17;3.40;;;;;;;12.84;70.41;99740.78;1657484;86;21568;-66
2022/04/27 06:25:43;;;;;;;7.53;3.60;;;;;;;12.83;69.73;99745.26;1650692;85;21036;-66
2022/04/27 06:28:14;;;;;;;3.87;3.20;;;;;;;12.81;69.54;99747.53;1656767;85;21028;-67
2022/04/27 06:30:45;;;;;;;7.67;3.40;;;;;;;12.77;69.82;99750.14;1657124;86;21262;-66
2022/04/27 06:33:13;;;;;;;5.05;3.27;;;;;;;12.72;69.90;99753.08;1637724;87;21109;-67
2022/04/27 06:35:43;;;;;;;4.70;3.33;;;;;;;12.73;68.76;99750.55;1653975;85;21004;-67
2022/04/27 06:38:11;;;;;;;5.25;3.52;;;;;;;12.69;68.68;99749.03;1658018;86;21017;-67
2022/04/27 06:40:38;;;;;;;9.68;3.98;;;;;;;12.74;68.98;99753.57;1652635;85;21063;-67
2022/04/27 06:43:07;;;;;;;7.53;3.77;;;;;;;12.87;69.94;99763.62;1654635;86;21636;-67
2022/04/27 06:45:46;;;;;;;7.35;4.05;;;;;;;12.99;68.94;99764.87;1651770;86;21120;-68
2022/04/27 06:48:32;;;;;;;7.60;3.60;;;;;;;13.06;69.04;99765.19;1654538;86;21053;-67
2022/04/27 06:51:18;;;;;;;5.60;3.30;;;;;;;13.11;69.24;99774.69;1656448;86;21549;-66
2022/04/27 06:54:04;;;;;;;6.47;3.77;;;;;;;13.10;67.95;99773.05;1652486;86;21037;-67
2022/04/27 06:56:53;;;;;;;3.17;2.72;;;;;;;13.15;68.94;99774.84;1647749;85;21144;-67
2022/04/27 06:59:26;;;;;;;6.22;2.92;;;;;;;13.29;68.28;99777.95;1641419;86;21049;-67
2022/04/27 07:01:56;;;;;;;4.87;3.20;;;;;;;13.31;66.97;99788.92;1642011;86;21017;-66
2022/04/27 07:04:26;;;;;;;4.55;2.50;;;;;;;13.27;65.28;99786.59;1644254;86;21094;-67
2022/04/27 07:06:53;;;;;;;6.50;3.08;;;;;;;13.26;66.04;99790.48;1643018;86;21057;-66
2022/04/27 07:09:22;;;;;;;5.00;3.70;;;;;;;13.34;66.41;99796.55;1644890;86;21130;-67
2022/04/27 07:11:52;;;;;;;4.83;3.55;;;;;;;13.38;65.97;99800.29;1641350;86;21100;-66
2022/04/27 07:14:21;;;;;;;4.75;3.92;;;;;;;13.37;66.29;99802.01;1639816;86;21089;-67
2022/04/27 07:16:47;;;;;;;5.45;3.27;;;;;;;13.43;65.39;99798.46;1641450;86;21081;-67
2022/04/27 07:19:18;;;;;;;4.42;3.20;;;;;;;13.52;65.35;99803.43;1638563;86;21044;-67
2022/04/27 07:21:47;;;;;;;8.23;3.37;;;;;;;13.56;64.08;99807.73;1640198;86;21218;-68
2022/04/27 07:24:13;;;;;;;7.58;3.02;;;;;;;13.54;63.41;99802.53;1647188;86;21509;-68
2022/04/27 07:26:43;;;;;;;3.10;2.80;;;;;;;13.52;64.10;99807.58;1646976;86;21162;-69
2022/04/27 07:29:09;;;;;;;8.68;2.90;;;;;;;13.51;64.38;99808.71;1651534;86;21033;-68
2022/04/27 07:31:37;;;;;;;3.58;2.95;;;;;;;13.51;63.26;99810.09;1642230;86;21131;-67
2022/04/27 07:34:06;;;;;;;6.55;3.17;;;;;;;13.49;63.57;99811.78;1641615;86;22881;-68
2022/04/27 07:36:32;;;;;;;5.60;2.90;;;;;;;13.54;63.04;99813.61;1649769;86;21002;-68
2022/04/27 07:39:00;;;;;;;3.17;2.45;;;;;;;13.55;62.02;99814.39;1642980;86;21115;-67
2022/04/27 07:41:29;;;;;;;2.98;2.58;;;;;;;13.42;59.94;99811.52;1641023;86;21097;-68
2022/04/27 07:43:55;;;;;;;4.22;2.60;;;;;;;13.24;60.64;99807.98;1642145;86;21600;-68
2022/04/27 07:46:24;;;;;;;6.12;2.67;;;;;;;13.20;62.04;99810.63;1640045;86;21642;-68
2022/04/27 07:48:53;;;;;;;3.08;2.60;;;;;;;13.32;61.67;99812.70;1640720;86;21070;-69
2022/04/27 07:51:19;;;;;;;3.05;2.75;;;;;;;13.39;61.03;99810.80;1640577;86;21043;-68
2022/04/27 07:53:50;;;;;;;4.70;2.92;;;;;;;13.38;60.80;99809.98;1640450;86;21050;-68
2022/04/27 07:56:16;;;;;;;6.40;2.72;;;;;;;13.35;60.93;99810.64;1635098;86;21512;-68
2022/04/27 07:58:46;;;;;;;4.00;2.70;;;;;;;13.39;60.23;99812.97;1670318;84;21555;-68
2022/04/27 08:01:15;;;;;;;4.90;2.90;;;;;;;13.44;60.86;99814.73;1670457;84;21063;-67
2022/04/27 08:03:43;;;;;;;5.20;2.95;;;;;;;13.57;61.47;99815.70;1670249;84;21036;-67
2022/04/27 08:06:20;;;;;;;3.35;2.37;;;;;;;13.72;60.12;99833.70;1667529;84;21084;-67
2022/04/27 08:08:48;;;;;;;3.33;2.33;;;;;;;13.74;60.02;99824.48;1665183;84;21127;-67
2022/04/27 08:11:21;;;;;;;2.95;2.60;;;;;;;13.80;59.28;99829.25;1669213;84;21133;-66
2022/04/27 08:13:55;;;;;;;2.45;2.25;;;;;;;13.86;59.17;99827.11;1670701;84;22081;-66
2022/04/27 08:16:24;;;;;;;4.60;3.03;;;;;;;13.92;59.46;99823.58;1680620;84;21045;-67
2022/04/27 08:18:54;;;;;;;4.87;2.47;;;;;;;13.94;59.25;99819.88;1685013;84;21046;-67
2022/04/27 08:21:23;;;;;;;2.52;2.30;;;;;;;14.07;60.02;99825.77;1677169;85;21058;-66
2022/04/27 08:23:51;;;;;;;3.67;2.77;;;;;;;14.23;60.13;99820.98;1672387;85;21033;-66
2022/04/27 08:26:19;;;;;;;5.95;3.00;;;;;;;14.41;60.63;99826.40;1676934;85;21102;-67
2022/04/27 08:28:46;;;;;;;4.33;2.17;;;;;;;14.54;59.55;99830.85;1673762;84;21066;-66
2022/04/27 08:31:18;;;;;;;3.80;2.70;;;;;;;14.59;58.38;99834.80;1674443;85;21138;-66
2022/04/27 08:33:45;;;;;;;3.60;2.42;;;;;;;14.59;58.13;99835.38;1669096;85;21062;-67
2022/04/27 08:36:12;;;;;;;2.70;2.35;;;;;;;14.60;57.03;99837.80;1675748;84;21233;-69
2022/04/27 08:38:40;;;;;;;4.17;2.25;;;;;;;14.55;57.14;99836.62;1670263;85;21030;-68
2022/04/27 08:41:10;;;;;;;4.30;2.40;;;;;;;14.60;56.87;99834.23;1672559;85;21051;-68
2022/04/27 08:43:42;;;;;;;3.20;2.72;;;;;;;14.70;56.97;99833.00;1617934;87;21322;-67
2022/04/27 08:46:12;;;;;;;8.48;3.40;;;;;;;14.86;56.30;99836.56;1670382;85;21085;-67
2022/04/27 08:48:39;;;;;;;5.67;2.00;;;;;;;14.92;55.77;99833.23;1671481;85;21207;-68
2022/04/27 08:51:08;;;;;;;3.52;3.08;;;;;;;15.05;56.11;99833.24;1671542;85;21039;-68
2022/04/27 08:53:36;;;;;;;4.67;2.60;;;;;;;15.21;57.08;99834.23;1670563;85;21032;-67
2022/04/27 08:56:03;;;;;;;7.58;3.00;;;;;;;15.48;57.31;99831.70;1621364;86;21530;-67
2022/04/27 08:58:33;;;;;;;3.65;2.52;;;;;;;15.70;56.97;99834.03;1678022;84;21131;-70
2022/04/27 09:00:59;;;;;;;3.47;2.40;;;;;;;15.86;55.43;99829.73;1673854;85;21133;-68
2022/04/27 09:03:36;;;;;;;5.47;2.30;;;;;;;15.88;52.83;99832.38;1678513;84;21514;-67
2022/04/27 09:06:11;;;;;;;3.10;2.25;;;;;;;15.75;52.65;99832.98;1678244;84;21015;-70
2022/04/27 09:08:50;;;;;;;4.28;2.30;;;;;;;15.49;50.17;99836.90;1628717;87;21023;-67
2022/04/27 09:11:30;;;;;;;2.95;1.77;;;;;;;15.19;51.88;99838.48;1614099;87;21094;-67
2022/04/27 09:14:11;;;;;;;2.55;2.05;;;;;;;15.00;50.62;99843.98;1628857;87;21065;-68
2022/04/27 09:22:27;;;;;;;4.15;1.82;;;;;;;14.86;50.37;99842.90;1631624;87;21000;-68
2022/04/27 09:24:58;;;;;;;2.98;2.10;;;;;;;15.03;50.13;99843.30;1633764;87;21074;-68
2022/04/27 09:27:27;;;;;;;2.40;1.92;;;;;;;15.16;51.60;99841.39;1631965;87;21511;-67
2022/04/27 09:30:10;;;;;;;2.52;1.87;;;;;;;15.25;49.29;99843.25;1678398;84;21030;-67
2022/04/27 09:32:51;;;;;;;2.77;1.95;;;;;;;15.35;50.26;99841.42;1679686;84;21581;-67
2022/04/27 09:35:32;;;;;;;2.47;1.82;;;;;;;15.52;49.22;99836.23;1622811;87;21065;-67
2022/04/27 09:38:16;;;;;;;3.47;2.40;;;;;;;15.73;48.00;99838.06;1640175;87;21052;-68
2022/04/27 09:40:54;;;;;;;3.77;2.12;;;;;;;15.83;48.99;99836.81;1681406;84;21007;-69
2022/04/27 09:43:49;;;;;;;3.62;2.20;;;;;;;15.99;49.68;99835.53;1681640;84;21585;-67
2022/04/27 09:46:23;;;;;;;6.80;2.52;;;;;;;16.14;48.47;99834.57;1683831;84;28641;-68
2022/04/27 09:49:11;;;;;;;4.28;2.58;;;;;;;16.11;47.19;99838.88;1678860;84;21081;-67
2022/04/27 09:51:49;;;;;;;3.80;2.47;;;;;;;15.97;48.37;99835.64;1681198;84;21002;-67
2022/04/27 09:54:19;;;;;;;3.02;2.33;;;;;;;16.08;48.16;99835.98;1631426;87;21094;-67
2022/04/27 09:56:57;;;;;;;2.80;2.33;;;;;;;16.20;46.99;99830.41;1638243;86;21536;-66
2022/04/27 09:59:30;;;;;;;5.80;2.62;;;;;;;16.26;48.18;99833.16;1665595;86;21073;-67
2022/04/27 10:02:05;;;;;;;;;;;;;;;16.30;48.21;99830.49;1668236;86;21064;-67
2022/04/27 10:04:40;;;;;;;9.30;2.92;;;;;;;16.32;47.69;99827.36;1663716;86;20173;-67
2022/04/27 10:07:13;;;;;;;4.03;2.85;;;;;;;16.44;48.35;99832.89;1660182;85;21027;-67
2022/04/27 10:09:40;;;;;;;5.62;3.02;;;;;;;16.60;47.70;99827.98;1661054;86;21046;-68
2022/04/27 10:12:11;;;;;;;3.80;2.30;;;;;;;16.72;47.43;99833.47;1706140;83;21072;-68
2022/04/27 10:14:40;;;;;;;3.65;1.90;;;;;;;16.62;45.57;99833.40;1703042;83;21058;-68
2022/04/27 10:17:11;;;;;;;2.05;1.67;;;;;;;16.48;44.71;99831.01;1645479;86;21016;-68
2022/04/27 10:19:46;;;;;;;2.80;1.80;;;;;;;16.43;43.15;99841.80;1684292;83;21276;-68
2022/04/27 10:22:32;;;;;;;3.33;2.33;;;;;;;16.17;43.53;99836.07;1677977;83;21069;-68
2022/04/27 10:25:08;;;;;;;2.52;1.75;;;;;;;16.07;42.10;99840.72;1641846;87;21523;-67
2022/04/27 10:27:44;;;;;;;5.12;2.08;;;;;;;15.82;41.92;99842.12;1700898;83;21066;-68
2022/04/27 10:30:14;;;;;;;2.75;1.87;;;;;;;15.59;43.24;99839.82;1704351;83;21097;-67
2022/04/27 10:32:47;;;;;;;3.80;1.95;;;;;;;15.52;43.45;99837.62;1644848;87;21532;-67
2022/04/27 10:35:29;;;;;;;6.25;2.12;;;;;;;15.46;43.24;99841.77;1640516;87;21040;-68
2022/04/27 10:37:59;;;;;;;2.67;1.80;;;;;;;15.49;44.10;99834.72;1635716;87;21007;-68
2022/04/27 10:40:43;;;;;;;5.47;1.50;;;;;;;15.57;42.57;99841.53;1704595;83;21065;-67
2022/04/27 10:43:20;;;;;;;1.90;1.50;;;;;;;15.57;41.96;99841.53;1692910;83;21045;-70
2022/04/27 10:45:48;;;;;;;3.42;1.95;;;;;;;15.68;42.73;99839.68;1644715;86;21759;-68
2022/04/27 10:48:29;;;;;;;2.58;1.75;;;;;;;15.80;41.11;99845.81;1640247;87;21118;-68
2022/04/27 10:51:07;;;;;;;2.10;1.50;;;;;;;15.72;41.90;99850.34;1640536;87;21024;-67
2022/04/27 10:53:43;;;;;;;2.85;1.70;;;;;;;15.65;41.28;99847.33;1663696;84;21052;-68
2022/04/27 10:56:23;;;;;;;3.72;1.90;;;;;;;15.49;40.68;99839.67;1641432;86;21092;-67
2022/04/27 10:58:51;;;;;;;2.98;1.52;;;;;;;15.57;42.18;99845.69;1671826;85;21176;-68
2022/04/27 11:01:27;;;;;;;2.85;1.72;;;;;;;15.79;41.08;99848.37;1648777;85;21671;-68
2022/04/27 11:04:05;;;;;;;2.65;1.27;;;;;;;15.88;42.24;99845.48;1673055;85;21043;-68
2022/04/27 11:07:17;;;;;;;2.17;1.37;;;;;;;15.93;41.58;99849.41;1673159;85;21061;-68
2022/04/27 11:10:15;;;;;;;2.15;1.40;;;;;;;15.84;40.25;99848.71;1670679;85;21527;-67
2022/04/27 11:12:48;;;;;;;3.05;2.00;;;;;;;15.82;39.41;99851.84;1671643;85;21217;-68
2022/04/27 11:15:27;;;;;;;3.67;1.90;;;;;;;15.62;39.65;99850.23;1668197;85;21056;-68
2022/04/27 11:18:01;;;;;;;1.82;1.45;;;;;;;15.73;40.52;99853.34;1671755;85;21051;-67
2022/04/27 11:20:37;;;;;;;3.08;1.30;;;;;;;16.00;39.21;99848.25;1671968;85;21039;-68
2022/04/27 11:23:22;;;;;;;4.47;1.75;;;;;;;16.15;40.06;99855.09;1669711;85;21024;-68
2022/04/27 11:25:54;;;;;;;1.12;1.02;;;;;;;16.25;39.13;99855.19;1665474;85;21174;-68
2022/04/27 11:28:22;;;;;;;2.87;1.70;;;;;;;16.30;39.01;99845.78;1672006;85;21634;-68
2022/04/27 11:30:51;;;;;;;1.52;1.07;;;;;;;16.46;39.52;99843.09;1672414;85;21588;-68
2022/04/27 11:33:21;;;;;;;2.50;1.40;;;;;;;16.62;37.98;99846.48;1670153;85;21110;-69
2022/04/27 11:35:50;;;;;;;2.02;1.20;;;;;;;16.62;36.83;99843.70;1672209;84;21119;-69
2022/04/27 11:38:22;;;;;;;2.25;1.80;;;;;;;16.55;37.29;99838.75;1673308;84;21057;-68
2022/04/27 11:40:52;;;;;;;3.00;1.45;;;;;;;16.61;38.62;99846.27;1652104;85;21066;-67
2022/04/27 11:43:27;;;;;;;3.20;1.50;;;;;;;16.88;38.95;99845.22;1668697;85;21122;-67
2022/04/27 11:45:58;;;;;;;3.50;1.60;;;;;;;17.09;38.08;99835.84;1672203;85;21028;-67
2022/04/27 11:48:30;;;;;;;2.07;1.47;;;;;;;17.28;37.89;99834.58;1675421;85;20984;-67
2022/04/27 11:51:06;;;;;;;2.15;1.57;;;;;;;17.42;37.72;99836.72;1671155;85;21091;-67
2022/04/27 11:53:47;;;;;;;1.62;1.40;;;;;;;17.42;36.76;99835.32;1660276;86;21016;-68
2022/04/27 11:56:15;;;;;;;4.42;1.15;;;;;;;17.24;37.40;99830.09;1703660;83;21577;-68
2022/04/27 11:58:45;;;;;;;3.02;1.60;;;;;;;17.19;37.98;99828.97;1669741;84;21045;-68
2022/04/27 12:01:22;;;;;;;2.25;1.37;;;;;;;17.04;37.08;99830.75;1690129;84;21015;-68
2022/04/27 12:03:53;;;;;;;2.77;1.62;;;;;;;16.86;36.26;99829.46;1687949;84;21173;-68
2022/04/27 12:06:26;;;;;;;2.52;1.37;;;;;;;16.66;35.74;99829.33;1690154;84;21497;-67
2022/04/27 12:08:52;;;;;;;1.55;1.17;;;;;;;16.62;36.66;99820.06;1690608;83;21050;-67
2022/04/27 12:11:22;;;;;;;1.57;0.98;;;;;;;16.70;34.79;99821.88;1692278;84;21126;-69
2022/04/27 12:13:54;;;;;;;1.70;1.00;;;;;;;16.74;35.24;99821.41;1691090;84;21056;-67
2022/04/27 12:16:22;;;;;;;3.33;1.37;;;;;;;16.91;34.47;99819.47;1692946;84;22102;-67
2022/04/27 12:18:54;;;;;;;0.88;0.88;;;;;;;17.11;34.89;99821.02;1691171;84;21002;-68
2022/04/27 12:21:25;;;;;;;1.45;1.00;;;;;;;17.37;33.73;99816.31;1689600;84;21110;-68